Terminal Aerodrome Forecast
Issued by NWS

Home | Current Version | Previous Version | Text Only | Print | Product List | Glossary On
Versions: 1 2 3 4 5 6 7 8 9 10 11 12 13 14 15 16
176
FTUS42 TJSJ 290022 CCB
TAFJSJ
TAF COR
TJSJ 290022Z 2900/2924 07015G22KT P6SM VCSH SCT022 SCT035 BKN080
      TEMPO 2900/2903 VRB16G28KT 4SM TSRA BKN022CB BKN040
     FM290400 08017G25KT P6SM VCTS FEW025CB BKN050 BKN090
      TEMPO 2905/2909 VRB24G32KT 3SM TSRA BKN025CB OVC050
     FM291450 08020G32KT P6SM VCSH SCT025 BKN060 BKN100=

USA.gov is the U.S. government's official web portal to all federal, state and local government web resources and services.